Time;durP1;ratioP1;P1;durP2;ratioP2;P2;SDS_P1;SDS_P2;PMS_P1;PMS_P2;Temp;Humidity;BMP_temperature;BMP_pressure;BME280_temperature;BME280_humidity;BME280_pressure;Samples;Min_cycle;Max_cycle;Signal;HPM_P1;HPM_P2
2021/03/17 00:03:33;;;;;;;;;11.50;10.50;;;;;;;;12019231;29;8884;-50
2021/03/17 00:09:53;;;;;;;;;8.25;8.25;;;;;;;;12009019;29;8855;-51
2021/03/17 00:16:13;;;;;;;;;10.50;9.50;;;;;;;;12009835;29;8903;-49
2021/03/17 00:22:34;;;;;;;;;9.25;9.25;;;;;;;;12008723;29;8856;-50
2021/03/17 00:28:54;;;;;;;;;11.00;9.00;;;;;;;;12008567;29;9646;-49
2021/03/17 00:35:15;;;;;;;;;8.00;5.00;;;;;;;;12008582;29;8880;-52
2021/03/17 00:41:36;;;;;;;;;6.75;6.75;;;;;;;;12008806;29;8963;-49
2021/03/17 00:48:11;;;;;;;;;5.25;5.25;;;;;;;;12008331;29;9232;-53
2021/03/17 00:54:18;;;;;;;;;9.75;7.50;;;;;;;;12022201;29;8873;-52
2021/03/17 01:00:28;;;;;;;;;7.00;5.00;;;;;;;;12041671;29;8879;-51
2021/03/17 01:06:29;;;;;;;;;7.50;4.75;;;;;;;;12006857;29;8902;-50
2021/03/17 01:12:31;;;;;;;;;7.75;5.00;;;;;;;;12007891;29;8875;-51
2021/03/17 01:18:32;;;;;;;;;4.00;4.00;;;;;;;;12008001;29;8990;-49
2021/03/17 01:24:35;;;;;;;;;4.00;2.50;;;;;;;;12006887;29;8938;-49
2021/03/17 01:30:36;;;;;;;;;6.75;4.25;;;;;;;;12007645;29;8902;-51
2021/03/17 01:36:38;;;;;;;;;5.00;4.00;;;;;;;;12006446;29;8864;-51
2021/03/17 01:42:40;;;;;;;;;4.00;4.00;;;;;;;;12007532;29;8884;-49
2021/03/17 01:48:43;;;;;;;;;5.75;4.00;;;;;;;;12060497;29;8928;-48
2021/03/17 01:54:45;;;;;;;;;5.00;4.50;;;;;;;;12059941;29;8874;-50
2021/03/17 02:00:47;;;;;;;;;5.00;2.50;;;;;;;;12051954;29;8883;-50
2021/03/17 02:06:51;;;;;;;;;2.00;2.00;;;;;;;;12014052;29;9654;-50
2021/03/17 02:13:20;;;;;;;;;1.75;1.75;;;;;;;;12016176;29;8868;-48
2021/03/17 02:19:57;;;;;;;;;7.25;4.50;;;;;;;;12013798;29;8931;-50
2021/03/17 02:26:16;;;;;;;;;2.00;2.00;;;;;;;;12034647;29;8857;-48
2021/03/17 02:32:25;;;;;;;;;1.00;1.00;;;;;;;;12058876;29;8876;-50
2021/03/17 02:38:29;;;;;;;;;4.00;4.00;;;;;;;;12058612;29;8875;-49
2021/03/17 02:44:30;;;;;;;;;1.25;1.00;;;;;;;;12058747;29;8877;-48
2021/03/17 02:50:33;;;;;;;;;2.00;2.00;;;;;;;;12057658;29;8865;-51
2021/03/17 02:56:41;;;;;;;;;1.75;1.75;;;;;;;;12058614;29;8895;-53
2021/03/17 03:02:48;;;;;;;;;1.00;1.00;;;;;;;;12036912;29;8888;-47
2021/03/17 03:08:51;;;;;;;;;1.25;1.25;;;;;;;;12012374;29;8876;-49
2021/03/17 03:14:53;;;;;;;;;2.00;2.00;;;;;;;;12011987;29;8894;-47
2021/03/17 03:20:55;;;;;;;;;1.00;1.00;;;;;;;;12011536;29;8875;-48
2021/03/17 03:27:00;;;;;;;;;3.50;1.75;;;;;;;;12012447;29;8883;-52
2021/03/17 03:33:02;;;;;;;;;2.00;2.00;;;;;;;;12012125;29;8934;-49
2021/03/17 03:39:04;;;;;;;;;2.50;2.00;;;;;;;;12012333;29;8868;-51
2021/03/17 03:45:08;;;;;;;;;2.00;2.00;;;;;;;;12011040;29;8872;-46
2021/03/17 03:51:10;;;;;;;;;2.50;2.50;;;;;;;;12009649;29;8927;-48
2021/03/17 03:57:23;;;;;;;;;4.00;4.00;;;;;;;;12014123;29;8857;-51
2021/03/17 04:03:24;;;;;;;;;4.00;4.00;;;;;;;;12484662;24;8874;-52
2021/03/17 04:10:04;;;;;;;;;4.75;4.75;;;;;;;;12056505;29;8916;-50
2021/03/17 04:16:07;;;;;;;;;4.75;4.50;;;;;;;;12033249;29;9634;-51
2021/03/17 04:22:10;;;;;;;;;6.25;6.25;;;;;;;;12057166;29;8944;-50
2021/03/17 04:28:15;;;;;;;;;8.00;7.00;;;;;;;;12057528;29;8865;-50
2021/03/17 04:34:17;;;;;;;;;5.00;5.00;;;;;;;;12055976;29;8881;-52
2021/03/17 04:40:20;;;;;;;;;5.00;4.50;;;;;;;;12055278;29;8897;-51
2021/03/17 04:46:22;;;;;;;;;7.50;7.25;;;;;;;;12056589;29;8853;-48
2021/03/17 04:52:26;;;;;;;;;4.00;4.00;;;;;;;;12055304;29;9036;-52
2021/03/17 04:58:28;;;;;;;;;5.00;5.00;;;;;;;;12056758;29;8919;-51
2021/03/17 05:04:32;;;;;;;;;13.00;9.25;;;;;;;;12033983;29;8916;-51
2021/03/17 05:10:36;;;;;;;;;6.25;6.25;;;;;;;;12029548;29;8947;-51
2021/03/17 05:16:38;;;;;;;;;5.00;5.00;;;;;;;;12024545;29;8876;-54
2021/03/17 05:22:42;;;;;;;;;9.00;6.75;;;;;;;;12029498;29;8910;-50
2021/03/17 05:28:45;;;;;;;;;6.75;4.25;;;;;;;;12023469;29;8890;-50
2021/03/17 05:35:07;;;;;;;;;8.00;8.00;;;;;;;;12021471;29;8875;-51
2021/03/17 05:41:08;;;;;;;;;8.50;8.00;;;;;;;;12035614;29;8898;-51
2021/03/17 05:47:11;;;;;;;;;6.75;5.75;;;;;;;;12022575;29;8868;-52
2021/03/17 05:53:12;;;;;;;;;8.25;8.00;;;;;;;;12021965;29;8875;-55
2021/03/17 05:59:15;;;;;;;;;9.00;9.00;;;;;;;;12036344;29;8895;-51
2021/03/17 06:05:20;;;;;;;;;7.75;5.00;;;;;;;;12020655;29;8899;-52
2021/03/17 06:11:23;;;;;;;;;10.00;8.75;;;;;;;;12023260;29;9055;-52
2021/03/17 06:17:28;;;;;;;;;15.75;10.75;;;;;;;;12021661;29;8887;-53
2021/03/17 06:23:30;;;;;;;;;8.00;6.00;;;;;;;;12021049;29;9621;-53
2021/03/17 06:29:31;;;;;;;;;11.50;9.50;;;;;;;;12054672;29;9647;-53
2021/03/17 06:35:32;;;;;;;;;8.50;8.00;;;;;;;;12058116;29;8896;-49
2021/03/17 06:41:49;;;;;;;;;10.25;10.25;;;;;;;;12057559;29;8957;-51
2021/03/17 06:47:52;;;;;;;;;9.75;9.75;;;;;;;;12031301;29;8871;-49
2021/03/17 06:53:59;;;;;;;;;10.00;10.00;;;;;;;;12040564;29;8871;-49
2021/03/17 07:00:19;;;;;;;;;11.25;11.25;;;;;;;;12023062;29;8873;-49
2021/03/17 07:06:20;;;;;;;;;18.50;17.50;;;;;;;;12022292;29;9292;-50
2021/03/17 07:12:30;;;;;;;;;66.25;52.25;;;;;;;;12025838;29;9656;-51
2021/03/17 07:18:32;;;;;;;;;32.25;31.75;;;;;;;;12025391;29;8857;-54
2021/03/17 07:24:35;;;;;;;;;14.75;14.75;;;;;;;;12026299;29;8863;-49
2021/03/17 07:30:37;;;;;;;;;12.00;12.00;;;;;;;;12035487;29;8895;-50
2021/03/17 07:37:00;;;;;;;;;25.25;24.00;;;;;;;;12021231;29;8940;-48
2021/03/17 07:43:02;;;;;;;;;16.75;14.00;;;;;;;;12026361;29;8883;-54
2021/03/17 07:49:06;;;;;;;;;17.75;16.25;;;;;;;;12030358;29;8892;-53
2021/03/17 07:55:10;;;;;;;;;15.00;15.00;;;;;;;;12033271;29;8995;-51
2021/03/17 08:01:11;;;;;;;;;19.50;17.00;;;;;;;;12033976;29;8903;-47
2021/03/17 08:07:15;;;;;;;;;18.75;15.25;;;;;;;;12024525;29;8999;-53
2021/03/17 08:13:19;;;;;;;;;15.00;14.50;;;;;;;;12052606;29;8865;-54
2021/03/17 08:19:29;;;;;;;;;11.00;11.00;;;;;;;;12032651;29;8881;-53
2021/03/17 08:25:38;;;;;;;;;11.00;9.75;;;;;;;;12028122;29;8914;-53
2021/03/17 08:31:40;;;;;;;;;10.25;10.25;;;;;;;;12046537;29;8869;-50
2021/03/17 08:37:54;;;;;;;;;6.00;6.00;;;;;;;;12042758;29;9665;-49
2021/03/17 08:44:12;;;;;;;;;6.25;6.25;;;;;;;;12049946;29;8865;-53
2021/03/17 08:50:23;;;;;;;;;11.75;11.75;;;;;;;;12027378;29;8952;-52
2021/03/17 08:56:49;;;;;;;;;10.50;9.75;;;;;;;;12021565;29;8871;-50
2021/03/17 09:02:51;;;;;;;;;5.75;5.50;;;;;;;;12025429;29;8958;-50
2021/03/17 09:09:02;;;;;;;;;10.25;8.25;;;;;;;;12046091;29;8852;-50
2021/03/17 09:15:12;;;;;;;;;6.00;6.00;;;;;;;;12025898;29;8868;-48
2021/03/17 09:21:29;;;;;;;;;6.00;5.00;;;;;;;;12016861;29;8936;-53
2021/03/17 09:27:30;;;;;;;;;3.00;3.00;;;;;;;;12033071;29;8868;-53
2021/03/17 09:33:43;;;;;;;;;2.00;2.00;;;;;;;;12023754;29;8894;-52
2021/03/17 09:39:48;;;;;;;;;19.00;16.00;;;;;;;;12026626;29;8948;-50
2021/03/17 09:45:50;;;;;;;;;6.50;6.50;;;;;;;;12052129;29;8881;-51
2021/03/17 09:51:57;;;;;;;;;5.00;5.00;;;;;;;;12040723;29;9603;-50
2021/03/17 09:58:04;;;;;;;;;2.75;2.50;;;;;;;;12028666;29;8928;-50
2021/03/17 10:04:06;;;;;;;;;35.25;33.75;;;;;;;;12030508;29;8895;-53
2021/03/17 10:10:08;;;;;;;;;7.00;7.00;;;;;;;;12043256;29;9667;-49
2021/03/17 10:16:10;;;;;;;;;9.00;5.75;;;;;;;;12044144;29;8947;-49
2021/03/17 10:22:17;;;;;;;;;5.33;4.33;;;;;;;;12048988;29;8889;-49
2021/03/17 10:28:21;;;;;;;;;6.00;6.00;;;;;;;;12041297;29;9478;-50
2021/03/17 10:34:27;;;;;;;;;9.00;8.00;;;;;;;;12049825;29;8868;-50
2021/03/17 10:40:30;;;;;;;;;16.25;15.25;;;;;;;;12033793;29;8877;-53
2021/03/17 10:46:32;;;;;;;;;28.50;23.75;;;;;;;;12024924;29;8875;-53
2021/03/17 10:52:40;;;;;;;;;31.50;28.50;;;;;;;;12041737;29;8872;-54
2021/03/17 10:58:41;;;;;;;;;20.50;19.25;;;;;;;;12053890;29;8889;-54
2021/03/17 11:05:03;;;;;;;;;11.25;11.25;;;;;;;;12043932;29;8954;-52
2021/03/17 11:11:06;;;;;;;;;14.75;14.75;;;;;;;;12021982;29;8925;-50
2021/03/17 11:17:08;;;;;;;;;17.75;17.75;;;;;;;;12042933;29;8852;-53
2021/03/17 11:23:19;;;;;;;;;30.00;28.00;;;;;;;;12046120;29;8881;-52
2021/03/17 11:29:24;;;;;;;;;17.25;17.25;;;;;;;;12050883;29;8906;-50
2021/03/17 11:35:26;;;;;;;;;28.50;27.25;;;;;;;;12037037;29;8860;-49
2021/03/17 11:41:27;;;;;;;;;22.00;21.75;;;;;;;;12023166;29;8877;-50
2021/03/17 11:47:29;;;;;;;;;24.25;21.75;;;;;;;;12032634;29;8860;-51
2021/03/17 11:53:33;;;;;;;;;14.75;13.75;;;;;;;;12015580;29;8949;-49
2021/03/17 11:59:34;;;;;;;;;14.50;13.75;;;;;;;;12053673;29;8867;-49
2021/03/17 12:05:36;;;;;;;;;13.75;11.75;;;;;;;;12018428;29;8891;-49
2021/03/17 12:11:41;;;;;;;;;9.00;9.00;;;;;;;;12017129;29;9682;-54
2021/03/17 12:17:43;;;;;;;;;8.50;8.50;;;;;;;;12047543;29;8901;-51
2021/03/17 12:23:44;;;;;;;;;5.50;5.50;;;;;;;;12029963;29;8873;-51
2021/03/17 12:29:47;;;;;;;;;12.50;10.75;;;;;;;;12035412;29;8964;-50
2021/03/17 12:35:48;;;;;;;;;4.25;4.25;;;;;;;;12045814;29;8872;-51
2021/03/17 12:41:50;;;;;;;;;14.50;14.50;;;;;;;;12050659;29;8857;-50
2021/03/17 12:47:52;;;;;;;;;9.50;9.50;;;;;;;;12019638;29;9595;-53
2021/03/17 12:53:54;;;;;;;;;30.75;28.25;;;;;;;;12034539;29;8865;-51
2021/03/17 12:59:58;;;;;;;;;29.00;25.50;;;;;;;;12036199;29;10462;-54
2021/03/17 13:06:00;;;;;;;;;22.50;22.50;;;;;;;;12045438;29;8866;-52
2021/03/17 13:12:04;;;;;;;;;15.25;15.25;;;;;;;;12053560;29;8944;-56
2021/03/17 13:18:05;;;;;;;;;30.50;26.00;;;;;;;;12022885;29;8873;-50
2021/03/17 13:24:07;;;;;;;;;15.25;12.25;;;;;;;;12032165;29;8900;-53
2021/03/17 13:30:10;;;;;;;;;18.25;15.00;;;;;;;;12016656;29;8982;-52
2021/03/17 13:36:11;;;;;;;;;14.25;13.50;;;;;;;;12040129;29;8885;-50
2021/03/17 13:42:12;;;;;;;;;11.25;11.25;;;;;;;;12046679;29;8876;-53
2021/03/17 13:48:15;;;;;;;;;10.50;10.00;;;;;;;;12028359;29;8912;-54
2021/03/17 13:54:16;;;;;;;;;14.25;14.25;;;;;;;;12050765;29;8873;-51
2021/03/17 14:00:19;;;;;;;;;12.50;11.50;;;;;;;;12026140;29;8875;-53
2021/03/17 14:06:21;;;;;;;;;10.75;10.00;;;;;;;;12020613;29;9701;-51
2021/03/17 14:12:23;;;;;;;;;20.00;15.50;;;;;;;;12024874;29;8879;-49
2021/03/17 14:18:25;;;;;;;;;21.25;19.50;;;;;;;;12051984;29;8896;-50
2021/03/17 14:24:27;;;;;;;;;15.50;15.00;;;;;;;;12058428;29;8876;-48
2021/03/17 14:30:29;;;;;;;;;21.50;19.00;;;;;;;;12041040;29;8921;-51
2021/03/17 14:36:31;;;;;;;;;20.00;19.00;;;;;;;;12032058;29;8882;-53
2021/03/17 14:42:32;;;;;;;;;20.50;18.00;;;;;;;;12042961;29;8893;-53
2021/03/17 14:48:35;;;;;;;;;11.50;11.50;;;;;;;;12046783;29;8868;-50
2021/03/17 14:54:37;;;;;;;;;13.50;13.00;;;;;;;;12029451;29;9008;-52
2021/03/17 15:00:39;;;;;;;;;13.00;13.00;;;;;;;;12039726;29;8875;-50
2021/03/17 15:06:41;;;;;;;;;17.75;16.00;;;;;;;;12044093;29;8885;-50
2021/03/17 15:12:43;;;;;;;;;14.25;14.00;;;;;;;;12054195;29;8881;-52
2021/03/17 15:18:44;;;;;;;;;9.75;8.50;;;;;;;;12031716;29;8986;-53
2021/03/17 15:24:46;;;;;;;;;11.25;8.75;;;;;;;;12028841;29;9622;-56
2021/03/17 15:30:48;;;;;;;;;10.00;10.00;;;;;;;;12025222;29;8898;-54
2021/03/17 15:36:49;;;;;;;;;10.75;10.75;;;;;;;;12009939;29;10108;-54
2021/03/17 15:42:53;;;;;;;;;13.75;11.25;;;;;;;;12010936;29;8891;-58
2021/03/17 15:48:54;;;;;;;;;14.00;14.00;;;;;;;;12010922;29;8870;-48
2021/03/17 15:54:56;;;;;;;;;14.75;13.50;;;;;;;;12036956;29;8877;-52
2021/03/17 16:00:59;;;;;;;;;19.00;18.00;;;;;;;;12054791;29;8862;-57
2021/03/17 16:07:02;;;;;;;;;19.75;19.00;;;;;;;;12042549;29;8883;-54
2021/03/17 16:13:03;;;;;;;;;18.25;15.25;;;;;;;;12042681;29;8878;-54
2021/03/17 16:19:06;;;;;;;;;20.25;18.00;;;;;;;;12054300;29;8880;-53
2021/03/17 16:25:08;;;;;;;;;19.50;18.50;;;;;;;;12028580;29;9611;-52
2021/03/17 16:31:10;;;;;;;;;19.25;16.50;;;;;;;;12031592;29;8877;-54
2021/03/17 16:37:14;;;;;;;;;19.75;19.25;;;;;;;;12035989;29;8955;-51
2021/03/17 16:43:15;;;;;;;;;20.25;16.50;;;;;;;;12007038;29;8888;-56
2021/03/17 16:49:17;;;;;;;;;19.75;17.00;;;;;;;;12005599;29;8868;-54
2021/03/17 16:55:18;;;;;;;;;15.75;15.25;;;;;;;;12006135;29;8884;-54
2021/03/17 17:01:20;;;;;;;;;23.50;20.25;;;;;;;;12031928;29;8872;-54
2021/03/17 17:07:22;;;;;;;;;24.50;21.50;;;;;;;;12005077;29;8998;-56
2021/03/17 17:13:24;;;;;;;;;21.50;20.75;;;;;;;;12005988;29;8886;-55
2021/03/17 17:19:25;;;;;;;;;18.50;16.00;;;;;;;;12007536;29;8871;-56
2021/03/17 17:25:28;;;;;;;;;15.25;15.25;;;;;;;;12005747;29;8899;-55
2021/03/17 17:31:29;;;;;;;;;17.00;14.50;;;;;;;;12007121;29;8856;-50
2021/03/17 17:37:34;;;;;;;;;47.75;42.00;;;;;;;;12004476;29;8856;-53
2021/03/17 17:43:36;;;;;;;;;18.50;16.00;;;;;;;;12006017;29;8872;-54
2021/03/17 17:49:38;;;;;;;;;17.50;17.50;;;;;;;;12016949;29;8861;-53
2021/03/17 17:55:40;;;;;;;;;20.25;16.50;;;;;;;;12051287;29;9673;-53
2021/03/17 18:01:41;;;;;;;;;8.00;8.00;;;;;;;;12052647;29;8883;-54
2021/03/17 18:07:45;;;;;;;;;9.50;9.50;;;;;;;;12050430;29;8874;-54
2021/03/17 18:13:48;;;;;;;;;12.00;12.00;;;;;;;;12046540;29;8896;-54
2021/03/17 18:19:49;;;;;;;;;12.50;12.00;;;;;;;;12049637;29;8857;-53
2021/03/17 18:25:51;;;;;;;;;8.00;7.50;;;;;;;;12052891;29;8877;-54
2021/03/17 18:31:53;;;;;;;;;14.25;11.75;;;;;;;;12020611;29;8872;-56
2021/03/17 18:37:55;;;;;;;;;14.00;13.25;;;;;;;;12012804;29;8852;-53
2021/03/17 18:43:57;;;;;;;;;11.00;11.00;;;;;;;;12017980;29;8867;-53
2021/03/17 18:49:59;;;;;;;;;18.25;16.00;;;;;;;;12013481;29;8879;-52
2021/03/17 18:56:00;;;;;;;;;26.00;25.25;;;;;;;;12010654;29;8871;-54
2021/03/17 19:02:08;;;;;;;;;14.00;14.00;;;;;;;;12052738;29;8863;-58
2021/03/17 19:08:12;;;;;;;;;35.25;34.00;;;;;;;;12057557;29;8879;-53
2021/03/17 19:14:14;;;;;;;;;30.25;28.25;;;;;;;;12031775;29;9039;-54
2021/03/17 19:20:19;;;;;;;;;24.00;24.00;;;;;;;;12049221;29;8911;-56
2021/03/17 19:26:22;;;;;;;;;18.50;18.50;;;;;;;;12041362;29;8881;-56
2021/03/17 19:32:31;;;;;;;;;17.50;15.25;;;;;;;;12046700;29;8887;-52
2021/03/17 19:38:33;;;;;;;;;18.00;15.25;;;;;;;;12009611;29;8871;-56
2021/03/17 19:44:35;;;;;;;;;15.25;12.25;;;;;;;;12007789;29;9661;-54
2021/03/17 19:50:39;;;;;;;;;18.50;17.75;;;;;;;;12009562;29;8872;-55
2021/03/17 19:56:59;;;;;;;;;28.00;24.25;;;;;;;;12051559;29;8861;-51
2021/03/17 20:03:19;;;;;;;;;26.50;26.00;;;;;;;;12036332;29;8872;-51
2021/03/17 20:09:25;;;;;;;;;21.75;21.50;;;;;;;;12009892;29;8894;-54
2021/03/17 20:15:31;;;;;;;;;18.25;18.25;;;;;;;;12010444;29;8879;-52
2021/03/17 20:21:34;;;;;;;;;25.00;21.50;;;;;;;;12008800;29;8914;-54
2021/03/17 20:27:36;;;;;;;;;21.75;18.75;;;;;;;;12008766;29;8971;-52
2021/03/17 20:33:40;;;;;;;;;11.25;11.00;;;;;;;;12023831;29;8886;-51
2021/03/17 20:39:42;;;;;;;;;15.25;15.25;;;;;;;;12008447;29;8879;-49
2021/03/17 20:46:06;;;;;;;;;18.75;18.75;;;;;;;;12015215;29;8901;-52
2021/03/17 20:52:10;;;;;;;;;17.50;15.25;;;;;;;;12019128;29;8899;-53
2021/03/17 20:58:15;;;;;;;;;1.00;0.00;;;;;;;;12019551;29;8861;-55
2021/03/17 21:04:19;;;;;;;;;18.50;15.75;;;;;;;;12020882;29;8998;-51
2021/03/17 21:10:25;;;;;;;;;13.00;13.00;;;;;;;;12005889;29;8871;-56
2021/03/17 21:16:31;;;;;;;;;12.50;9.50;;;;;;;;12013906;29;9090;-50
2021/03/17 21:22:35;;;;;;;;;18.25;17.00;;;;;;;;12005293;29;9014;-49
2021/03/17 21:28:38;;;;;;;;;16.00;15.00;;;;;;;;12008563;29;8864;-52
2021/03/17 21:34:47;;;;;;;;;14.75;12.00;;;;;;;;12050335;29;8889;-50
2021/03/17 21:41:15;;;;;;;;;6.25;5.00;;;;;;;;12056686;29;8909;-53
2021/03/17 21:47:16;;;;;;;;;16.00;12.75;;;;;;;;12051891;29;8908;-57
2021/03/17 21:53:18;;;;;;;;;14.00;14.00;;;;;;;;12051870;29;8869;-53
2021/03/17 21:59:20;;;;;;;;;15.25;12.00;;;;;;;;12052854;29;8855;-52
2021/03/17 22:05:21;;;;;;;;;13.50;11.50;;;;;;;;12013087;29;8920;-52
2021/03/17 22:11:23;;;;;;;;;13.75;11.50;;;;;;;;12015397;29;8974;-58
2021/03/17 22:17:25;;;;;;;;;14.25;14.00;;;;;;;;12014881;29;9110;-52
2021/03/17 22:23:28;;;;;;;;;14.00;13.25;;;;;;;;12014418;29;8959;-48
2021/03/17 22:29:31;;;;;;;;;16.50;16.50;;;;;;;;12015909;29;8872;-57
2021/03/17 22:35:32;;;;;;;;;10.75;10.75;;;;;;;;12013384;29;8879;-52
2021/03/17 22:41:34;;;;;;;;;17.75;16.75;;;;;;;;12024486;29;8873;-49
2021/03/17 22:47:37;;;;;;;;;12.00;11.25;;;;;;;;12015070;29;8860;-50
2021/03/17 22:53:39;;;;;;;;;13.75;13.75;;;;;;;;12013221;29;8891;-51
2021/03/17 22:59:41;;;;;;;;;15.25;13.50;;;;;;;;12036193;29;8855;-52
2021/03/17 23:05:44;;;;;;;;;15.50;13.75;;;;;;;;12057412;29;8890;-53
2021/03/17 23:11:48;;;;;;;;;9.00;8.00;;;;;;;;12059000;29;8901;-50
2021/03/17 23:17:49;;;;;;;;;13.00;13.00;;;;;;;;12065623;29;8916;-53
2021/03/17 23:23:56;;;;;;;;;13.00;13.00;;;;;;;;12011323;29;8896;-51
2021/03/17 23:30:11;;;;;;;;;12.25;12.25;;;;;;;;12012200;29;8860;-50
2021/03/17 23:36:13;;;;;;;;;11.50;11.50;;;;;;;;12010878;29;8872;-53
2021/03/17 23:42:20;;;;;;;;;6.00;5.00;;;;;;;;12011442;29;8859;-52
2021/03/17 23:48:22;;;;;;;;;11.00;10.00;;;;;;;;12043117;29;8902;-52
2021/03/17 23:54:25;;;;;;;;;16.75;11.00;;;;;;;;12055835;29;8870;-51
